Crystal City, Missouri
Current Conditions -  °F | °C
As of 5:53 AM on Friday 28 Nov 2014 (Local Time) from KCPS Reporting Station
Clear Clear  
Wind Chill: 16°   Ceiling: Unl
Heat Index: 25°   Visibility: 9mi
Dew Point: 22°   Wind: 9mph
Humidity: 88%   Direction: 150°SSE
Pressure: 30.31"   Gusts: NA
Location:  38.22°N, 90.38°W
Report Text: KCPS 281153Z AUTO 15008KT 9SM CLR M04/M06 A3031 RMK AO2 SLP269 T10391056 11033 21039 56029 TSNO
Loading
Personal Weather Stations






























Interactive Weather Map New forecast layout! Learn more

10-Day Weather Forecast

Advertisements
Track Severe Weather on mobile